sensor_id;sensor_type;location;lat;lon;timestamp;P1;durP1;ratioP1;P2;durP2;ratioP2
48578;SDS011;34357;51.948;6.132;2023-02-07T00:00:05;62.13;;;25.60;;
48578;SDS011;34357;51.948;6.132;2023-02-07T00:02:37;64.97;;;26.08;;
48578;SDS011;34357;51.948;6.132;2023-02-07T00:05:07;63.43;;;26.13;;
48578;SDS011;34357;51.948;6.132;2023-02-07T00:07:32;68.70;;;25.85;;
48578;SDS011;34357;51.948;6.132;2023-02-07T00:09:58;68.97;;;27.10;;
48578;SDS011;34357;51.948;6.132;2023-02-07T00:12:24;80.30;;;28.90;;
48578;SDS011;34357;51.948;6.132;2023-02-07T00:14:49;68.83;;;27.43;;
48578;SDS011;34357;51.948;6.132;2023-02-07T00:17:15;62.22;;;25.88;;
48578;SDS011;34357;51.948;6.132;2023-02-07T00:19:41;72.72;;;26.98;;
48578;SDS011;34357;51.948;6.132;2023-02-07T00:22:06;69.35;;;26.27;;
48578;SDS011;34357;51.948;6.132;2023-02-07T00:24:32;69.78;;;27.40;;
48578;SDS011;34357;51.948;6.132;2023-02-07T00:26:58;78.78;;;28.85;;
48578;SDS011;34357;51.948;6.132;2023-02-07T00:29:23;69.05;;;27.67;;
48578;SDS011;34357;51.948;6.132;2023-02-07T00:31:50;67.40;;;26.83;;
48578;SDS011;34357;51.948;6.132;2023-02-07T00:34:15;69.57;;;28.73;;
48578;SDS011;34357;51.948;6.132;2023-02-07T00:36:41;76.93;;;28.58;;
48578;SDS011;34357;51.948;6.132;2023-02-07T00:39:11;65.00;;;27.77;;
48578;SDS011;34357;51.948;6.132;2023-02-07T00:41:38;63.58;;;27.33;;
48578;SDS011;34357;51.948;6.132;2023-02-07T00:44:05;65.83;;;25.70;;
48578;SDS011;34357;51.948;6.132;2023-02-07T00:46:31;66.10;;;27.43;;
48578;SDS011;34357;51.948;6.132;2023-02-07T00:48:57;64.07;;;26.00;;
48578;SDS011;34357;51.948;6.132;2023-02-07T00:51:23;65.43;;;26.05;;
48578;SDS011;34357;51.948;6.132;2023-02-07T00:53:55;69.32;;;26.95;;
48578;SDS011;34357;51.948;6.132;2023-02-07T00:56:23;69.20;;;26.93;;
48578;SDS011;34357;51.948;6.132;2023-02-07T00:58:50;67.73;;;26.80;;
48578;SDS011;34357;51.948;6.132;2023-02-07T01:01:16;71.87;;;27.03;;
48578;SDS011;34357;51.948;6.132;2023-02-07T01:03:42;79.00;;;27.23;;
48578;SDS011;34357;51.948;6.132;2023-02-07T01:06:09;77.83;;;27.73;;
48578;SDS011;34357;51.948;6.132;2023-02-07T01:08:35;63.53;;;27.13;;
48578;SDS011;34357;51.948;6.132;2023-02-07T01:11:02;79.73;;;28.53;;
48578;SDS011;34357;51.948;6.132;2023-02-07T01:13:29;73.03;;;27.23;;
48578;SDS011;34357;51.948;6.132;2023-02-07T01:15:55;69.73;;;28.70;;
48578;SDS011;34357;51.948;6.132;2023-02-07T01:18:21;74.27;;;28.47;;
48578;SDS011;34357;51.948;6.132;2023-02-07T01:20:46;66.37;;;27.57;;
48578;SDS011;34357;51.948;6.132;2023-02-07T01:23:12;79.47;;;28.77;;
48578;SDS011;34357;51.948;6.132;2023-02-07T01:25:39;75.13;;;28.20;;
48578;SDS011;34357;51.948;6.132;2023-02-07T01:28:08;74.07;;;27.67;;
48578;SDS011;34357;51.948;6.132;2023-02-07T01:30:33;71.93;;;28.30;;
48578;SDS011;34357;51.948;6.132;2023-02-07T01:32:59;65.17;;;27.13;;
48578;SDS011;34357;51.948;6.132;2023-02-07T01:35:25;63.73;;;26.93;;
48578;SDS011;34357;51.948;6.132;2023-02-07T01:37:52;66.50;;;26.87;;
48578;SDS011;34357;51.948;6.132;2023-02-07T01:40:19;70.13;;;28.67;;
48578;SDS011;34357;51.948;6.132;2023-02-07T01:42:45;68.73;;;27.47;;
48578;SDS011;34357;51.948;6.132;2023-02-07T01:45:26;66.57;;;27.23;;
48578;SDS011;34357;51.948;6.132;2023-02-07T01:47:55;65.27;;;28.73;;
48578;SDS011;34357;51.948;6.132;2023-02-07T01:50:25;67.15;;;29.05;;
48578;SDS011;34357;51.948;6.132;2023-02-07T01:52:52;61.30;;;27.63;;
48578;SDS011;34357;51.948;6.132;2023-02-07T01:55:21;71.33;;;29.60;;
48578;SDS011;34357;51.948;6.132;2023-02-07T01:57:52;71.43;;;31.37;;
48578;SDS011;34357;51.948;6.132;2023-02-07T02:00:19;65.63;;;30.57;;
48578;SDS011;34357;51.948;6.132;2023-02-07T02:02:46;73.63;;;31.83;;
48578;SDS011;34357;51.948;6.132;2023-02-07T02:05:11;74.13;;;31.33;;
48578;SDS011;34357;51.948;6.132;2023-02-07T02:07:39;68.23;;;31.07;;
48578;SDS011;34357;51.948;6.132;2023-02-07T02:10:09;68.17;;;30.90;;
48578;SDS011;34357;51.948;6.132;2023-02-07T02:12:59;69.77;;;31.90;;
48578;SDS011;34357;51.948;6.132;2023-02-07T02:16:03;69.82;;;30.35;;
48578;SDS011;34357;51.948;6.132;2023-02-07T02:41:04;59.70;;;29.50;;
48578;SDS011;34357;51.948;6.132;2023-02-07T02:43:57;65.40;;;29.70;;
48578;SDS011;34357;51.948;6.132;2023-02-07T02:46:30;68.70;;;30.40;;
48578;SDS011;34357;51.948;6.132;2023-02-07T02:48:59;69.23;;;28.70;;
48578;SDS011;34357;51.948;6.132;2023-02-07T02:51:30;64.50;;;30.70;;
48578;SDS011;34357;51.948;6.132;2023-02-07T02:53:58;64.70;;;29.13;;
48578;SDS011;34357;51.948;6.132;2023-02-07T02:56:38;65.20;;;30.30;;
48578;SDS011;34357;51.948;6.132;2023-02-07T02:59:31;64.43;;;31.20;;
48578;SDS011;34357;51.948;6.132;2023-02-07T03:07:47;59.70;;;29.10;;
48578;SDS011;34357;51.948;6.132;2023-02-07T03:10:32;66.50;;;29.73;;
48578;SDS011;34357;51.948;6.132;2023-02-07T03:15:51;60.93;;;29.73;;
48578;SDS011;34357;51.948;6.132;2023-02-07T03:18:48;59.20;;;28.67;;
48578;SDS011;34357;51.948;6.132;2023-02-07T03:21:41;64.57;;;30.53;;
48578;SDS011;34357;51.948;6.132;2023-02-07T03:24:14;72.60;;;31.83;;
48578;SDS011;34357;51.948;6.132;2023-02-07T03:26:51;64.47;;;29.87;;
48578;SDS011;34357;51.948;6.132;2023-02-07T03:29:20;65.10;;;29.07;;
48578;SDS011;34357;51.948;6.132;2023-02-07T03:31:49;58.67;;;29.47;;
48578;SDS011;34357;51.948;6.132;2023-02-07T03:34:22;59.93;;;29.37;;
48578;SDS011;34357;51.948;6.132;2023-02-07T03:36:57;63.42;;;29.58;;
48578;SDS011;34357;51.948;6.132;2023-02-07T03:39:28;58.40;;;27.40;;
48578;SDS011;34357;51.948;6.132;2023-02-07T03:41:55;64.00;;;28.77;;
48578;SDS011;34357;51.948;6.132;2023-02-07T03:44:25;54.47;;;27.33;;
48578;SDS011;34357;51.948;6.132;2023-02-07T03:46:52;57.63;;;29.63;;
48578;SDS011;34357;51.948;6.132;2023-02-07T03:49:18;62.10;;;29.30;;
48578;SDS011;34357;51.948;6.132;2023-02-07T03:51:45;58.33;;;28.33;;
48578;SDS011;34357;51.948;6.132;2023-02-07T03:54:11;57.93;;;29.60;;
48578;SDS011;34357;51.948;6.132;2023-02-07T03:56:38;63.10;;;30.63;;
48578;SDS011;34357;51.948;6.132;2023-02-07T03:59:04;64.87;;;29.00;;
48578;SDS011;34357;51.948;6.132;2023-02-07T04:01:30;62.07;;;30.33;;
48578;SDS011;34357;51.948;6.132;2023-02-07T04:03:57;63.53;;;29.63;;
48578;SDS011;34357;51.948;6.132;2023-02-07T04:06:22;71.60;;;30.90;;
48578;SDS011;34357;51.948;6.132;2023-02-07T04:08:48;65.37;;;30.30;;
48578;SDS011;34357;51.948;6.132;2023-02-07T04:11:14;57.83;;;28.37;;
48578;SDS011;34357;51.948;6.132;2023-02-07T04:13:39;58.70;;;29.63;;
48578;SDS011;34357;51.948;6.132;2023-02-07T04:16:05;61.73;;;29.83;;
48578;SDS011;34357;51.948;6.132;2023-02-07T04:18:32;59.00;;;28.93;;
48578;SDS011;34357;51.948;6.132;2023-02-07T04:21:04;62.27;;;30.77;;
48578;SDS011;34357;51.948;6.132;2023-02-07T04:23:32;59.67;;;28.83;;
48578;SDS011;34357;51.948;6.132;2023-02-07T04:25:58;62.57;;;30.53;;
48578;SDS011;34357;51.948;6.132;2023-02-07T04:28:24;63.90;;;30.00;;
48578;SDS011;34357;51.948;6.132;2023-02-07T04:30:50;61.70;;;30.23;;
48578;SDS011;34357;51.948;6.132;2023-02-07T04:33:16;62.07;;;29.30;;
48578;SDS011;34357;51.948;6.132;2023-02-07T04:35:42;63.33;;;30.17;;
48578;SDS011;34357;51.948;6.132;2023-02-07T04:38:08;62.37;;;31.33;;
48578;SDS011;34357;51.948;6.132;2023-02-07T04:40:34;60.23;;;30.30;;
48578;SDS011;34357;51.948;6.132;2023-02-07T04:43:02;72.30;;;31.27;;
48578;SDS011;34357;51.948;6.132;2023-02-07T04:45:28;56.13;;;29.67;;
48578;SDS011;34357;51.948;6.132;2023-02-07T04:47:53;63.93;;;29.93;;
48578;SDS011;34357;51.948;6.132;2023-02-07T04:50:19;60.80;;;30.47;;
48578;SDS011;34357;51.948;6.132;2023-02-07T04:52:45;64.57;;;30.17;;
48578;SDS011;34357;51.948;6.132;2023-02-07T04:55:11;65.33;;;29.63;;
48578;SDS011;34357;51.948;6.132;2023-02-07T04:57:36;58.07;;;29.07;;
48578;SDS011;34357;51.948;6.132;2023-02-07T05:00:02;67.33;;;30.47;;
48578;SDS011;34357;51.948;6.132;2023-02-07T05:02:28;60.00;;;29.67;;
48578;SDS011;34357;51.948;6.132;2023-02-07T05:04:54;61.77;;;29.80;;
48578;SDS011;34357;51.948;6.132;2023-02-07T05:07:20;61.60;;;29.43;;
48578;SDS011;34357;51.948;6.132;2023-02-07T05:09:46;62.77;;;30.53;;
48578;SDS011;34357;51.948;6.132;2023-02-07T05:12:11;61.93;;;30.90;;
48578;SDS011;34357;51.948;6.132;2023-02-07T05:14:37;60.73;;;31.20;;
48578;SDS011;34357;51.948;6.132;2023-02-07T05:17:03;57.93;;;29.03;;
48578;SDS011;34357;51.948;6.132;2023-02-07T05:19:28;62.13;;;31.97;;
48578;SDS011;34357;51.948;6.132;2023-02-07T05:21:54;69.70;;;30.97;;
48578;SDS011;34357;51.948;6.132;2023-02-07T05:24:20;62.03;;;30.73;;
48578;SDS011;34357;51.948;6.132;2023-02-07T05:26:45;59.77;;;28.97;;
48578;SDS011;34357;51.948;6.132;2023-02-07T05:29:11;63.07;;;31.37;;
48578;SDS011;34357;51.948;6.132;2023-02-07T05:31:37;64.67;;;30.43;;
48578;SDS011;34357;51.948;6.132;2023-02-07T05:34:22;61.67;;;30.47;;
48578;SDS011;34357;51.948;6.132;2023-02-07T05:36:47;61.57;;;31.13;;
48578;SDS011;34357;51.948;6.132;2023-02-07T05:39:13;62.17;;;30.23;;
48578;SDS011;34357;51.948;6.132;2023-02-07T05:41:39;68.70;;;31.17;;
48578;SDS011;34357;51.948;6.132;2023-02-07T05:44:05;67.40;;;31.67;;
48578;SDS011;34357;51.948;6.132;2023-02-07T05:46:31;67.33;;;31.33;;
48578;SDS011;34357;51.948;6.132;2023-02-07T05:48:57;57.87;;;30.10;;
48578;SDS011;34357;51.948;6.132;2023-02-07T05:51:22;68.33;;;30.83;;
48578;SDS011;34357;51.948;6.132;2023-02-07T05:53:49;58.33;;;30.43;;
48578;SDS011;34357;51.948;6.132;2023-02-07T05:56:14;63.87;;;30.87;;
48578;SDS011;34357;51.948;6.132;2023-02-07T05:58:40;63.80;;;31.33;;
48578;SDS011;34357;51.948;6.132;2023-02-07T06:01:06;69.93;;;31.77;;
48578;SDS011;34357;51.948;6.132;2023-02-07T06:03:32;68.63;;;31.60;;
48578;SDS011;34357;51.948;6.132;2023-02-07T06:05:57;68.20;;;30.57;;
48578;SDS011;34357;51.948;6.132;2023-02-07T06:08:23;63.53;;;30.93;;
48578;SDS011;34357;51.948;6.132;2023-02-07T06:10:49;61.00;;;30.30;;
48578;SDS011;34357;51.948;6.132;2023-02-07T06:13:15;61.07;;;30.40;;
48578;SDS011;34357;51.948;6.132;2023-02-07T06:15:40;70.07;;;32.27;;
48578;SDS011;34357;51.948;6.132;2023-02-07T06:18:06;65.87;;;33.10;;
48578;SDS011;34357;51.948;6.132;2023-02-07T06:20:32;66.17;;;31.63;;
48578;SDS011;34357;51.948;6.132;2023-02-07T06:22:58;65.30;;;31.03;;
48578;SDS011;34357;51.948;6.132;2023-02-07T06:25:24;65.70;;;31.13;;
48578;SDS011;34357;51.948;6.132;2023-02-07T06:27:49;70.43;;;32.70;;
48578;SDS011;34357;51.948;6.132;2023-02-07T06:30:15;63.70;;;32.07;;
48578;SDS011;34357;51.948;6.132;2023-02-07T06:32:41;63.63;;;31.60;;
48578;SDS011;34357;51.948;6.132;2023-02-07T06:35:07;62.20;;;31.77;;
48578;SDS011;34357;51.948;6.132;2023-02-07T06:37:33;61.87;;;32.60;;
48578;SDS011;34357;51.948;6.132;2023-02-07T06:39:59;56.53;;;29.50;;
48578;SDS011;34357;51.948;6.132;2023-02-07T06:42:24;65.07;;;31.63;;
48578;SDS011;34357;51.948;6.132;2023-02-07T06:44:50;63.90;;;32.07;;
48578;SDS011;34357;51.948;6.132;2023-02-07T06:47:16;66.13;;;33.10;;
48578;SDS011;34357;51.948;6.132;2023-02-07T06:49:44;64.90;;;32.30;;
48578;SDS011;34357;51.948;6.132;2023-02-07T06:52:10;70.60;;;33.03;;
48578;SDS011;34357;51.948;6.132;2023-02-07T06:54:36;67.30;;;32.27;;
48578;SDS011;34357;51.948;6.132;2023-02-07T06:57:02;65.23;;;33.77;;
48578;SDS011;34357;51.948;6.132;2023-02-07T06:59:28;65.13;;;32.03;;
48578;SDS011;34357;51.948;6.132;2023-02-07T07:01:54;67.97;;;32.80;;
48578;SDS011;34357;51.948;6.132;2023-02-07T07:04:19;71.87;;;33.60;;
48578;SDS011;34357;51.948;6.132;2023-02-07T07:06:45;69.37;;;32.77;;
48578;SDS011;34357;51.948;6.132;2023-02-07T07:09:11;64.33;;;31.80;;
48578;SDS011;34357;51.948;6.132;2023-02-07T07:11:38;78.90;;;32.60;;
48578;SDS011;34357;51.948;6.132;2023-02-07T07:14:07;71.70;;;33.50;;
48578;SDS011;34357;51.948;6.132;2023-02-07T07:16:33;72.70;;;33.77;;
48578;SDS011;34357;51.948;6.132;2023-02-07T07:18:59;77.07;;;34.00;;
48578;SDS011;34357;51.948;6.132;2023-02-07T07:21:25;69.53;;;33.30;;
48578;SDS011;34357;51.948;6.132;2023-02-07T07:23:52;68.57;;;33.83;;
48578;SDS011;34357;51.948;6.132;2023-02-07T07:26:18;72.27;;;34.60;;
48578;SDS011;34357;51.948;6.132;2023-02-07T07:28:45;68.70;;;33.70;;
48578;SDS011;34357;51.948;6.132;2023-02-07T07:31:11;68.07;;;33.47;;
48578;SDS011;34357;51.948;6.132;2023-02-07T07:33:38;67.07;;;33.60;;
48578;SDS011;34357;51.948;6.132;2023-02-07T07:36:04;64.93;;;33.73;;
48578;SDS011;34357;51.948;6.132;2023-02-07T07:38:30;68.93;;;33.37;;
48578;SDS011;34357;51.948;6.132;2023-02-07T07:40:56;73.80;;;34.90;;
48578;SDS011;34357;51.948;6.132;2023-02-07T07:43:22;75.70;;;37.17;;
48578;SDS011;34357;51.948;6.132;2023-02-07T07:45:50;78.10;;;36.67;;
48578;SDS011;34357;51.948;6.132;2023-02-07T07:48:20;62.78;;;34.75;;
48578;SDS011;34357;51.948;6.132;2023-02-07T07:50:46;72.47;;;37.30;;
48578;SDS011;34357;51.948;6.132;2023-02-07T07:53:12;65.77;;;34.67;;
48578;SDS011;34357;51.948;6.132;2023-02-07T07:55:38;69.13;;;36.90;;
48578;SDS011;34357;51.948;6.132;2023-02-07T07:58:04;58.70;;;32.83;;
48578;SDS011;34357;51.948;6.132;2023-02-07T08:00:30;58.07;;;32.07;;
48578;SDS011;34357;51.948;6.132;2023-02-07T08:02:55;56.83;;;31.27;;
48578;SDS011;34357;51.948;6.132;2023-02-07T08:05:21;61.73;;;31.07;;
48578;SDS011;34357;51.948;6.132;2023-02-07T08:07:47;51.30;;;30.20;;
48578;SDS011;34357;51.948;6.132;2023-02-07T08:10:13;54.50;;;30.23;;
48578;SDS011;34357;51.948;6.132;2023-02-07T08:12:38;89.97;;;42.23;;
48578;SDS011;34357;51.948;6.132;2023-02-07T08:15:04;79.17;;;37.60;;
48578;SDS011;34357;51.948;6.132;2023-02-07T08:17:33;81.93;;;39.77;;
48578;SDS011;34357;51.948;6.132;2023-02-07T08:19:59;67.87;;;34.90;;
48578;SDS011;34357;51.948;6.132;2023-02-07T08:22:25;56.67;;;30.30;;
48578;SDS011;34357;51.948;6.132;2023-02-07T08:24:51;50.53;;;27.93;;
48578;SDS011;34357;51.948;6.132;2023-02-07T08:27:17;50.27;;;27.43;;
48578;SDS011;34357;51.948;6.132;2023-02-07T08:29:42;50.53;;;28.77;;
48578;SDS011;34357;51.948;6.132;2023-02-07T08:32:10;53.50;;;30.90;;
48578;SDS011;34357;51.948;6.132;2023-02-07T08:34:36;45.80;;;28.30;;
48578;SDS011;34357;51.948;6.132;2023-02-07T08:37:03;56.40;;;30.37;;
48578;SDS011;34357;51.948;6.132;2023-02-07T08:39:29;54.73;;;29.77;;
48578;SDS011;34357;51.948;6.132;2023-02-07T08:41:56;49.50;;;29.20;;
48578;SDS011;34357;51.948;6.132;2023-02-07T08:44:22;53.70;;;28.50;;
48578;SDS011;34357;51.948;6.132;2023-02-07T08:46:48;53.97;;;29.13;;
48578;SDS011;34357;51.948;6.132;2023-02-07T08:49:13;48.93;;;29.70;;
48578;SDS011;34357;51.948;6.132;2023-02-07T08:51:39;57.43;;;29.40;;
48578;SDS011;34357;51.948;6.132;2023-02-07T08:54:06;48.73;;;27.93;;
48578;SDS011;34357;51.948;6.132;2023-02-07T08:56:32;48.77;;;28.03;;
48578;SDS011;34357;51.948;6.132;2023-02-07T08:58:58;44.53;;;26.03;;
48578;SDS011;34357;51.948;6.132;2023-02-07T09:01:24;47.33;;;26.77;;
48578;SDS011;34357;51.948;6.132;2023-02-07T09:03:53;45.30;;;25.27;;
48578;SDS011;34357;51.948;6.132;2023-02-07T09:06:21;43.20;;;25.67;;
48578;SDS011;34357;51.948;6.132;2023-02-07T09:08:48;42.20;;;24.95;;
48578;SDS011;34357;51.948;6.132;2023-02-07T09:11:13;42.10;;;24.40;;
48578;SDS011;34357;51.948;6.132;2023-02-07T09:13:39;40.10;;;23.70;;
48578;SDS011;34357;51.948;6.132;2023-02-07T09:16:09;46.70;;;25.17;;
48578;SDS011;34357;51.948;6.132;2023-02-07T09:18:36;38.77;;;23.20;;
48578;SDS011;34357;51.948;6.132;2023-02-07T09:21:02;38.73;;;22.67;;
48578;SDS011;34357;51.948;6.132;2023-02-07T09:23:28;36.27;;;22.23;;
48578;SDS011;34357;51.948;6.132;2023-02-07T09:25:58;35.37;;;22.33;;
48578;SDS011;34357;51.948;6.132;2023-02-07T09:28:25;39.67;;;23.27;;
48578;SDS011;34357;51.948;6.132;2023-02-07T09:30:51;35.20;;;20.73;;
48578;SDS011;34357;51.948;6.132;2023-02-07T09:33:17;30.30;;;18.43;;
48578;SDS011;34357;51.948;6.132;2023-02-07T09:35:43;32.40;;;19.53;;
48578;SDS011;34357;51.948;6.132;2023-02-07T09:38:14;25.17;;;16.63;;
48578;SDS011;34357;51.948;6.132;2023-02-07T09:40:42;30.88;;;17.50;;
48578;SDS011;34357;51.948;6.132;2023-02-07T09:43:16;28.20;;;17.57;;
48578;SDS011;34357;51.948;6.132;2023-02-07T09:45:46;27.13;;;17.03;;
48578;SDS011;34357;51.948;6.132;2023-02-07T09:48:42;24.63;;;16.13;;
48578;SDS011;34357;51.948;6.132;2023-02-07T09:51:07;24.47;;;15.93;;
48578;SDS011;34357;51.948;6.132;2023-02-07T09:53:39;24.97;;;15.27;;
48578;SDS011;34357;51.948;6.132;2023-02-07T09:56:08;24.70;;;15.87;;
48578;SDS011;34357;51.948;6.132;2023-02-07T09:58:41;20.77;;;14.87;;
48578;SDS011;34357;51.948;6.132;2023-02-07T10:01:31;20.60;;;14.63;;
48578;SDS011;34357;51.948;6.132;2023-02-07T10:06:44;19.85;;;14.23;;
48578;SDS011;34357;51.948;6.132;2023-02-07T10:09:15;21.60;;;14.03;;
48578;SDS011;34357;51.948;6.132;2023-02-07T10:11:44;22.65;;;13.52;;
48578;SDS011;34357;51.948;6.132;2023-02-07T10:18:09;20.47;;;13.53;;
48578;SDS011;34357;51.948;6.132;2023-02-07T10:20:50;21.63;;;12.77;;
48578;SDS011;34357;51.948;6.132;2023-02-07T10:31:30;15.17;;;10.67;;
48578;SDS011;34357;51.948;6.132;2023-02-07T10:34:21;17.02;;;10.93;;
48578;SDS011;34357;51.948;6.132;2023-02-07T10:36:47;15.10;;;9.70;;
48578;SDS011;34357;51.948;6.132;2023-02-07T10:41:43;15.27;;;10.13;;
48578;SDS011;34357;51.948;6.132;2023-02-07T10:44:10;18.75;;;10.35;;
48578;SDS011;34357;51.948;6.132;2023-02-07T10:46:39;17.00;;;10.68;;
48578;SDS011;34357;51.948;6.132;2023-02-07T10:49:21;15.40;;;10.25;;
48578;SDS011;34357;51.948;6.132;2023-02-07T10:51:50;16.58;;;9.85;;
48578;SDS011;34357;51.948;6.132;2023-02-07T10:54:18;17.35;;;10.70;;
48578;SDS011;34357;51.948;6.132;2023-02-07T10:56:45;16.38;;;10.60;;
48578;SDS011;34357;51.948;6.132;2023-02-07T11:04:49;14.43;;;10.00;;
48578;SDS011;34357;51.948;6.132;2023-02-07T11:07:15;17.70;;;10.90;;
48578;SDS011;34357;51.948;6.132;2023-02-07T11:09:40;14.48;;;9.45;;
48578;SDS011;34357;51.948;6.132;2023-02-07T11:12:13;15.43;;;10.18;;
48578;SDS011;34357;51.948;6.132;2023-02-07T11:14:59;15.57;;;9.45;;
48578;SDS011;34357;51.948;6.132;2023-02-07T11:17:26;13.88;;;9.95;;
48578;SDS011;34357;51.948;6.132;2023-02-07T11:19:53;15.45;;;10.00;;
48578;SDS011;34357;51.948;6.132;2023-02-07T11:22:20;15.80;;;9.55;;
48578;SDS011;34357;51.948;6.132;2023-02-07T11:24:47;16.63;;;9.73;;
48578;SDS011;34357;51.948;6.132;2023-02-07T11:27:18;14.35;;;9.27;;
48578;SDS011;34357;51.948;6.132;2023-02-07T11:29:47;14.10;;;8.35;;
48578;SDS011;34357;51.948;6.132;2023-02-07T11:32:25;11.57;;;8.65;;
48578;SDS011;34357;51.948;6.132;2023-02-07T11:34:53;12.02;;;7.85;;
48578;SDS011;34357;51.948;6.132;2023-02-07T11:37:26;10.73;;;7.80;;
48578;SDS011;34357;51.948;6.132;2023-02-07T11:43:12;10.75;;;6.95;;
48578;SDS011;34357;51.948;6.132;2023-02-07T11:45:42;11.23;;;7.30;;
48578;SDS011;34357;51.948;6.132;2023-02-07T11:48:17;9.35;;;6.45;;
48578;SDS011;34357;51.948;6.132;2023-02-07T11:50:55;9.35;;;6.75;;
48578;SDS011;34357;51.948;6.132;2023-02-07T11:53:37;11.25;;;8.02;;
48578;SDS011;34357;51.948;6.132;2023-02-07T11:56:05;11.95;;;7.63;;
48578;SDS011;34357;51.948;6.132;2023-02-07T11:58:44;14.23;;;8.50;;
48578;SDS011;34357;51.948;6.132;2023-02-07T12:01:14;11.07;;;7.72;;
48578;SDS011;34357;51.948;6.132;2023-02-07T12:03:46;12.77;;;8.13;;
48578;SDS011;34357;51.948;6.132;2023-02-07T12:06:22;12.43;;;8.05;;
48578;SDS011;34357;51.948;6.132;2023-02-07T12:08:55;12.45;;;8.57;;
48578;SDS011;34357;51.948;6.132;2023-02-07T12:11:26;12.70;;;8.40;;
48578;SDS011;34357;51.948;6.132;2023-02-07T12:14:00;13.50;;;7.95;;
48578;SDS011;34357;51.948;6.132;2023-02-07T12:16:51;12.35;;;8.35;;
48578;SDS011;34357;51.948;6.132;2023-02-07T12:19:21;12.30;;;8.40;;
48578;SDS011;34357;51.948;6.132;2023-02-07T12:21:59;14.00;;;8.50;;
48578;SDS011;34357;51.948;6.132;2023-02-07T12:24:51;11.07;;;7.40;;
48578;SDS011;34357;51.948;6.132;2023-02-07T12:27:21;12.45;;;8.88;;
48578;SDS011;34357;51.948;6.132;2023-02-07T12:32:32;11.18;;;8.00;;
48578;SDS011;34357;51.948;6.132;2023-02-07T12:35:26;10.93;;;8.13;;
48578;SDS011;34357;51.948;6.132;2023-02-07T12:40:38;12.30;;;8.25;;
48578;SDS011;34357;51.948;6.132;2023-02-07T12:43:27;12.10;;;8.55;;
48578;SDS011;34357;51.948;6.132;2023-02-07T12:48:29;12.30;;;8.43;;
48578;SDS011;34357;51.948;6.132;2023-02-07T12:53:38;14.13;;;7.82;;
48578;SDS011;34357;51.948;6.132;2023-02-07T13:09:46;12.25;;;8.13;;
48578;SDS011;34357;51.948;6.132;2023-02-07T13:15:09;8.75;;;7.38;;
48578;SDS011;34357;51.948;6.132;2023-02-07T13:18:13;12.75;;;7.57;;
48578;SDS011;34357;51.948;6.132;2023-02-07T13:23:59;12.98;;;7.63;;
48578;SDS011;34357;51.948;6.132;2023-02-07T13:26:26;10.60;;;7.28;;
48578;SDS011;34357;51.948;6.132;2023-02-07T13:29:03;11.40;;;8.13;;
48578;SDS011;34357;51.948;6.132;2023-02-07T13:31:39;11.10;;;8.30;;
48578;SDS011;34357;51.948;6.132;2023-02-07T13:34:15;14.10;;;8.32;;
48578;SDS011;34357;51.948;6.132;2023-02-07T13:36:46;12.93;;;8.50;;
48578;SDS011;34357;51.948;6.132;2023-02-07T13:39:20;10.98;;;8.10;;
48578;SDS011;34357;51.948;6.132;2023-02-07T13:44:33;11.05;;;7.90;;
48578;SDS011;34357;51.948;6.132;2023-02-07T13:47:13;12.02;;;8.13;;
48578;SDS011;34357;51.948;6.132;2023-02-07T13:52:41;9.90;;;7.28;;
48578;SDS011;34357;51.948;6.132;2023-02-07T13:55:30;10.18;;;7.65;;
48578;SDS011;34357;51.948;6.132;2023-02-07T13:57:58;11.88;;;7.95;;
48578;SDS011;34357;51.948;6.132;2023-02-07T14:03:18;10.88;;;7.97;;
48578;SDS011;34357;51.948;6.132;2023-02-07T14:05:46;13.77;;;7.88;;
48578;SDS011;34357;51.948;6.132;2023-02-07T14:10:42;10.23;;;6.68;;
48578;SDS011;34357;51.948;6.132;2023-02-07T14:43:18;18.40;;;6.82;;
48578;SDS011;34357;51.948;6.132;2023-02-07T14:49:11;11.63;;;7.32;;
48578;SDS011;34357;51.948;6.132;2023-02-07T14:51:31;10.63;;;7.50;;
48578;SDS011;34357;51.948;6.132;2023-02-07T14:54:16;10.70;;;7.10;;
48578;SDS011;34357;51.948;6.132;2023-02-07T14:56:48;12.90;;;6.70;;
48578;SDS011;34357;51.948;6.132;2023-02-07T15:07:56;9.38;;;6.78;;
48578;SDS011;34357;51.948;6.132;2023-02-07T15:10:43;12.05;;;7.40;;
48578;SDS011;34357;51.948;6.132;2023-02-07T15:13:17;13.40;;;7.63;;
48578;SDS011;34357;51.948;6.132;2023-02-07T15:15:50;12.63;;;7.00;;
48578;SDS011;34357;51.948;6.132;2023-02-07T15:18:21;15.30;;;8.40;;
48578;SDS011;34357;51.948;6.132;2023-02-07T15:20:52;11.93;;;8.27;;
48578;SDS011;34357;51.948;6.132;2023-02-07T15:23:19;18.30;;;10.57;;
48578;SDS011;34357;51.948;6.132;2023-02-07T15:25:47;22.00;;;10.93;;
48578;SDS011;34357;51.948;6.132;2023-02-07T15:28:21;16.63;;;9.32;;
48578;SDS011;34357;51.948;6.132;2023-02-07T15:31:05;19.35;;;10.73;;
48578;SDS011;34357;51.948;6.132;2023-02-07T15:36:05;18.42;;;10.60;;
48578;SDS011;34357;51.948;6.132;2023-02-07T15:38:49;25.42;;;12.27;;
48578;SDS011;34357;51.948;6.132;2023-02-07T15:41:15;25.52;;;12.00;;
48578;SDS011;34357;51.948;6.132;2023-02-07T15:43:52;16.85;;;9.77;;
48578;SDS011;34357;51.948;6.132;2023-02-07T15:46:18;14.25;;;8.57;;
48578;SDS011;34357;51.948;6.132;2023-02-07T15:48:49;14.00;;;8.77;;
48578;SDS011;34357;51.948;6.132;2023-02-07T15:51:17;11.73;;;8.35;;
48578;SDS011;34357;51.948;6.132;2023-02-07T15:53:47;12.77;;;8.23;;
48578;SDS011;34357;51.948;6.132;2023-02-07T15:56:15;12.52;;;7.82;;
48578;SDS011;34357;51.948;6.132;2023-02-07T15:58:41;9.85;;;7.40;;
48578;SDS011;34357;51.948;6.132;2023-02-07T16:01:14;10.93;;;8.13;;
48578;SDS011;34357;51.948;6.132;2023-02-07T16:03:54;12.32;;;8.05;;
48578;SDS011;34357;51.948;6.132;2023-02-07T16:06:22;11.93;;;8.18;;
48578;SDS011;34357;51.948;6.132;2023-02-07T16:08:51;13.68;;;8.82;;
48578;SDS011;34357;51.948;6.132;2023-02-07T16:16:37;11.50;;;8.63;;
48578;SDS011;34357;51.948;6.132;2023-02-07T16:21:43;12.25;;;8.63;;
48578;SDS011;34357;51.948;6.132;2023-02-07T16:24:15;12.73;;;9.13;;
48578;SDS011;34357;51.948;6.132;2023-02-07T16:26:43;12.45;;;9.57;;
48578;SDS011;34357;51.948;6.132;2023-02-07T16:29:12;15.75;;;9.52;;
48578;SDS011;34357;51.948;6.132;2023-02-07T16:31:41;14.73;;;9.30;;
48578;SDS011;34357;51.948;6.132;2023-02-07T16:34:10;15.90;;;10.48;;
48578;SDS011;34357;51.948;6.132;2023-02-07T16:36:37;14.85;;;9.77;;
48578;SDS011;34357;51.948;6.132;2023-02-07T16:39:03;15.80;;;9.57;;
48578;SDS011;34357;51.948;6.132;2023-02-07T16:41:30;15.20;;;9.68;;
48578;SDS011;34357;51.948;6.132;2023-02-07T16:43:58;25.40;;;13.80;;
48578;SDS011;34357;51.948;6.132;2023-02-07T16:46:25;16.77;;;11.52;;
48578;SDS011;34357;51.948;6.132;2023-02-07T16:48:51;15.52;;;10.43;;
48578;SDS011;34357;51.948;6.132;2023-02-07T16:51:16;17.27;;;10.40;;
48578;SDS011;34357;51.948;6.132;2023-02-07T16:53:42;17.27;;;11.30;;
48578;SDS011;34357;51.948;6.132;2023-02-07T16:56:12;17.42;;;10.00;;
48578;SDS011;34357;51.948;6.132;2023-02-07T16:58:41;15.25;;;10.07;;
48578;SDS011;34357;51.948;6.132;2023-02-07T17:01:08;15.30;;;10.18;;
48578;SDS011;34357;51.948;6.132;2023-02-07T17:03:40;17.55;;;11.75;;
48578;SDS011;34357;51.948;6.132;2023-02-07T17:06:08;18.05;;;12.18;;
48578;SDS011;34357;51.948;6.132;2023-02-07T17:08:44;19.10;;;12.00;;